createdAt,value
2018-07-07T00:01:35.708Z,18.00
2018-07-07T00:04:08.201Z,18.10
2018-07-07T00:06:40.018Z,19.37
2018-07-07T00:09:12.086Z,17.03
2018-07-07T00:11:43.871Z,18.70
2018-07-07T00:14:16.106Z,18.00
2018-07-07T00:16:47.892Z,16.23
2018-07-07T00:19:19.603Z,17.10
2018-07-07T00:21:51.506Z,18.33
2018-07-07T00:24:23.463Z,17.30
2018-07-07T00:26:55.472Z,18.10
2018-07-07T00:29:27.578Z,16.93
2018-07-07T00:31:59.635Z,17.83
2018-07-07T00:34:31.535Z,18.50
2018-07-07T00:37:03.135Z,17.47
2018-07-07T00:39:36.920Z,16.10
2018-07-07T00:42:08.827Z,17.67
2018-07-07T00:44:41.302Z,17.80
2018-07-07T00:47:12.990Z,17.33
2018-07-07T00:49:44.975Z,16.10
2018-07-07T00:52:16.855Z,17.73
2018-07-07T00:54:48.514Z,17.70
2018-07-07T00:57:20.498Z,16.97
2018-07-07T00:59:52.927Z,19.07
2018-07-07T01:02:25.034Z,16.43
2018-07-07T01:04:57.266Z,17.33
2018-07-07T01:07:29.122Z,18.13
2018-07-07T01:10:01.270Z,17.47
2018-07-07T01:12:32.903Z,16.90
2018-07-07T01:15:04.991Z,17.67
2018-07-07T01:17:37.090Z,16.57
2018-07-07T01:20:08.953Z,18.17
2018-07-07T01:22:40.754Z,17.53
2018-07-07T01:25:12.947Z,19.10
2018-07-07T01:27:44.631Z,18.00
2018-07-07T01:30:16.666Z,17.90
2018-07-07T01:32:48.539Z,17.23
2018-07-07T01:35:20.579Z,16.80
2018-07-07T01:37:52.258Z,16.93
2018-07-07T01:40:25.522Z,15.63
2018-07-07T01:42:57.373Z,18.17
2018-07-07T01:45:28.582Z,17.30
2018-07-07T01:48:00.236Z,17.87
2018-07-07T01:50:32.295Z,16.77
2018-07-07T01:53:04.223Z,16.30
2018-07-07T01:55:36.393Z,18.10
2018-07-07T01:58:20.522Z,16.83
2018-07-07T02:00:54.294Z,15.97
2018-07-07T02:03:25.431Z,15.17
2018-07-07T02:05:57.386Z,17.30
2018-07-07T02:08:29.342Z,17.13
2018-07-07T02:11:01.312Z,16.47
2018-07-07T02:13:33.187Z,16.40
2018-07-07T02:16:04.996Z,15.13
2018-07-07T02:18:36.831Z,16.40
2018-07-07T02:21:08.534Z,16.23
2018-07-07T02:23:40.422Z,18.30
2018-07-07T02:26:12.247Z,17.30
2018-07-07T02:28:44.207Z,19.00
2018-07-07T02:31:16.427Z,17.17
2018-07-07T02:33:48.241Z,17.57
2018-07-07T02:36:19.321Z,17.13
2018-07-07T02:38:50.978Z,16.30
2018-07-07T02:41:24.091Z,17.30
2018-07-07T02:43:55.947Z,18.30
2018-07-07T02:46:28.138Z,16.30
2018-07-07T02:49:00.317Z,16.73
2018-07-07T02:51:32.204Z,16.80
2018-07-07T02:54:03.850Z,16.13
2018-07-07T02:56:36.046Z,17.30
2018-07-07T02:59:07.910Z,18.17
2018-07-07T03:01:39.970Z,18.17
2018-07-07T03:04:11.806Z,16.87
2018-07-07T03:06:43.707Z,16.60
2018-07-07T03:09:15.741Z,17.40
2018-07-07T03:11:48.161Z,16.33
2018-07-07T03:14:19.838Z,16.80
2018-07-07T03:16:52.034Z,17.50
2018-07-07T03:19:24.057Z,18.50
2018-07-07T03:21:56.218Z,18.10
2018-07-07T03:24:28.139Z,17.60
2018-07-07T03:26:59.907Z,18.10
2018-07-07T03:29:32.250Z,19.40
2018-07-07T03:32:04.461Z,19.17
2018-07-07T03:34:36.314Z,19.20
2018-07-07T03:37:08.389Z,18.67
2018-07-07T03:39:40.326Z,19.67
2018-07-07T03:42:13.595Z,18.87
2018-07-07T03:44:45.467Z,23.90
2018-07-07T03:47:17.419Z,20.37
2018-07-07T03:49:49.060Z,20.47
2018-07-07T03:52:20.948Z,19.80
2018-07-07T03:54:53.325Z,21.10
2018-07-07T03:57:25.800Z,19.17
2018-07-07T03:59:57.410Z,20.23
2018-07-07T04:02:29.285Z,22.93
2018-07-07T04:05:01.080Z,20.87
2018-07-07T04:07:33.084Z,20.87
2018-07-07T04:10:04.936Z,21.97
2018-07-07T04:12:36.094Z,23.57
2018-07-07T04:15:08.265Z,22.97
2018-07-07T04:17:40.459Z,23.70
2018-07-07T04:20:12.200Z,22.67
2018-07-07T04:22:44.187Z,21.10
2018-07-07T04:25:15.066Z,21.87
2018-07-07T04:27:47.282Z,21.57
2018-07-07T04:30:19.434Z,21.33
2018-07-07T04:32:51.647Z,24.00
2018-07-07T04:35:23.359Z,22.13
2018-07-07T04:37:55.472Z,21.20
2018-07-07T04:40:27.474Z,23.50
2018-07-07T04:43:01.893Z,22.73
2018-07-07T04:45:34.522Z,23.97
2018-07-07T04:48:06.660Z,25.60
2018-07-07T04:50:39.106Z,23.47
2018-07-07T04:53:11.227Z,26.40
2018-07-07T04:55:43.779Z,24.37
2018-07-07T04:58:17.524Z,25.37
2018-07-07T05:00:49.499Z,24.93
2018-07-07T05:03:20.715Z,27.43
2018-07-07T05:05:52.466Z,27.43
2018-07-07T05:08:23.833Z,27.03
2018-07-07T05:10:56.271Z,25.87
2018-07-07T05:13:28.553Z,27.10
2018-07-07T05:16:00.421Z,27.60
2018-07-07T05:18:32.299Z,28.35
2018-07-07T05:21:03.953Z,27.15
2018-07-07T05:23:36.425Z,28.57
2018-07-07T05:26:08.324Z,30.08
2018-07-07T05:28:40.208Z,26.07
2018-07-07T05:31:12.380Z,25.10
2018-07-07T05:33:44.698Z,27.30
2018-07-07T05:36:16.532Z,26.48
2018-07-07T05:38:48.677Z,27.55
2018-07-07T05:41:21.386Z,25.50
2018-07-07T05:43:58.237Z,27.87
2018-07-07T05:46:29.476Z,26.70
2018-07-07T05:49:02.092Z,28.07
2018-07-07T05:51:34.319Z,26.62
2018-07-07T05:54:06.463Z,28.30
2018-07-07T05:56:37.455Z,28.60
2018-07-07T05:59:09.258Z,26.85
2018-07-07T06:01:40.198Z,29.07
2018-07-07T06:04:12.182Z,26.85
2018-07-07T06:06:44.252Z,26.73
2018-07-07T06:09:16.586Z,30.85
2018-07-07T06:11:48.306Z,28.15
2018-07-07T06:14:20.805Z,30.55
2018-07-07T06:16:52.663Z,29.35
2018-07-07T06:19:24.738Z,31.35
2018-07-07T06:21:56.751Z,30.10
2018-07-07T06:24:28.907Z,29.57
2018-07-07T06:27:00.640Z,29.98
2018-07-07T06:29:32.823Z,31.57
2018-07-07T06:32:04.587Z,29.77
2018-07-07T06:34:36.850Z,31.65
2018-07-07T06:37:16.046Z,29.97
2018-07-07T06:40:04.603Z,28.85
2018-07-07T06:42:43.628Z,30.85
2018-07-07T06:45:21.313Z,29.25
2018-07-07T06:48:05.274Z,32.45
2018-07-07T06:50:44.797Z,30.80
2018-07-07T06:53:30.354Z,31.20
2018-07-07T06:56:04.218Z,32.08
2018-07-07T06:58:47.261Z,29.15
2018-07-07T07:01:20.385Z,29.42
2018-07-07T07:03:58.857Z,32.70
2018-07-07T07:06:39.786Z,32.15
2018-07-07T07:09:17.495Z,29.35
2018-07-07T07:12:00.119Z,25.08
2018-07-07T07:14:32.282Z,27.58
2018-07-07T07:17:04.287Z,27.15
2018-07-07T07:19:47.813Z,28.40
2018-07-07T07:22:26.754Z,27.73
2018-07-07T07:24:59.199Z,26.12
2018-07-07T07:27:31.386Z,28.30
2018-07-07T07:30:03.043Z,29.30
2018-07-07T07:32:35.384Z,25.72
2018-07-07T07:35:07.543Z,27.30
2018-07-07T07:37:39.465Z,27.42
2018-07-07T07:40:11.138Z,26.85
2018-07-07T07:42:43.314Z,26.00
2018-07-07T07:45:14.254Z,26.07
2018-07-07T07:47:47.679Z,25.72
2018-07-07T07:50:19.578Z,26.77
2018-07-07T07:52:51.847Z,25.45
2018-07-07T07:55:23.689Z,25.50
2018-07-07T07:57:56.109Z,29.82
2018-07-07T08:00:27.882Z,28.52
2018-07-07T08:02:59.966Z,28.32
2018-07-07T08:05:31.788Z,26.50
2018-07-07T08:08:03.626Z,26.10
2018-07-07T08:10:35.563Z,26.37
2018-07-07T08:13:08.527Z,26.27
2018-07-07T08:15:40.352Z,28.25
2018-07-07T08:18:12.568Z,29.92
2018-07-07T08:20:44.345Z,28.62
2018-07-07T08:23:16.078Z,27.87
2018-07-07T08:25:47.870Z,26.77
2018-07-07T08:28:20.145Z,28.42
2018-07-07T08:30:51.538Z,26.17
2018-07-07T08:33:23.838Z,28.12
2018-07-07T08:35:56.166Z,27.70
2018-07-07T08:38:28.215Z,24.92
2018-07-07T08:41:00.090Z,27.15
2018-07-07T08:43:32.212Z,24.60
2018-07-07T08:46:04.936Z,25.48
2018-07-07T08:48:37.082Z,24.92
2018-07-07T08:51:08.667Z,23.15
2018-07-07T08:53:40.670Z,25.27
2018-07-07T08:56:12.414Z,24.95
2018-07-07T08:58:44.345Z,24.67
2018-07-07T09:01:16.397Z,22.98
2018-07-07T09:03:48.307Z,25.70
2018-07-07T09:06:20.064Z,26.67
2018-07-07T09:08:52.236Z,23.27
2018-07-07T09:11:23.911Z,25.25
2018-07-07T09:13:56.027Z,23.85
2018-07-07T09:16:27.854Z,23.05
2018-07-07T09:18:59.970Z,25.68
2018-07-07T09:21:31.598Z,22.95
2018-07-07T09:24:03.777Z,22.65
2018-07-07T09:26:35.883Z,24.90
2018-07-07T09:29:08.036Z,26.25
2018-07-07T09:31:39.670Z,22.73
2018-07-07T09:34:11.747Z,23.80
2018-07-07T09:36:44.058Z,24.43
2018-07-07T09:39:15.971Z,24.45
2018-07-07T09:41:47.629Z,24.87
2018-07-07T09:44:19.628Z,21.17
2018-07-07T09:46:53.683Z,26.27
2018-07-07T09:49:26.068Z,24.87
2018-07-07T09:51:58.155Z,22.87
2018-07-07T09:54:30.090Z,22.90
2018-07-07T09:57:02.101Z,22.52
2018-07-07T09:59:34.438Z,21.00
2018-07-07T10:02:06.510Z,23.55
2018-07-07T10:04:38.967Z,23.12
2018-07-07T10:07:10.738Z,23.25
2018-07-07T10:09:42.490Z,23.32
2018-07-07T10:12:14.211Z,22.40
2018-07-07T10:14:46.463Z,20.55
2018-07-07T10:17:18.333Z,21.93
2018-07-07T10:19:50.188Z,21.17
2018-07-07T10:22:22.104Z,21.37
2018-07-07T10:24:54.027Z,21.90
2018-07-07T10:27:25.995Z,20.77
2018-07-07T10:29:58.370Z,22.30
2018-07-07T10:32:30.181Z,24.30
2018-07-07T10:35:02.177Z,23.38
2018-07-07T10:37:33.983Z,22.62
2018-07-07T10:40:06.205Z,23.00
2018-07-07T10:42:38.124Z,22.37
2018-07-07T10:45:10.251Z,22.70
2018-07-07T10:47:43.452Z,22.93
2018-07-07T10:50:15.584Z,21.70
2018-07-07T10:52:47.439Z,23.00
2018-07-07T10:55:19.527Z,23.00
2018-07-07T10:57:51.697Z,25.83
2018-07-07T11:00:24.104Z,24.25
2018-07-07T11:02:55.937Z,22.30
2018-07-07T11:05:28.205Z,23.50
2018-07-07T11:08:00.207Z,24.57
2018-07-07T11:10:32.519Z,26.60
2018-07-07T11:13:03.441Z,25.67
2018-07-07T11:15:35.395Z,24.40
2018-07-07T11:18:07.034Z,25.77
2018-07-07T11:20:39.280Z,23.50
2018-07-07T11:23:11.038Z,24.47
2018-07-07T11:25:43.094Z,25.02
2018-07-07T11:28:14.819Z,24.37
2018-07-07T11:30:46.729Z,24.17
2018-07-07T11:33:18.579Z,23.47
2018-07-07T11:35:50.715Z,23.42
2018-07-07T11:38:22.809Z,26.52
2018-07-07T11:40:55.368Z,22.17
2018-07-07T11:43:27.547Z,25.00
2018-07-07T11:46:00.114Z,23.30
2018-07-07T11:48:32.706Z,26.05
2018-07-07T11:51:04.858Z,25.92
2018-07-07T11:53:36.674Z,23.38
2018-07-07T11:56:08.708Z,23.30
2018-07-07T11:58:40.683Z,25.00
2018-07-07T12:01:12.650Z,23.47
2018-07-07T12:03:48.914Z,22.60
2018-07-07T12:06:33.841Z,22.90
2018-07-07T12:09:06.757Z,22.67
2018-07-07T12:11:39.017Z,19.80
2018-07-07T12:14:10.092Z,22.80
2018-07-07T12:16:42.203Z,22.90
2018-07-07T12:19:14.114Z,24.63
2018-07-07T12:21:46.262Z,24.20
2018-07-07T12:24:18.296Z,23.60
2018-07-07T12:26:49.463Z,20.80
2018-07-07T12:29:23.721Z,21.20
2018-07-07T12:31:55.779Z,22.00
2018-07-07T12:34:27.750Z,23.30
2018-07-07T12:36:59.648Z,23.30
2018-07-07T12:39:31.536Z,24.47
2018-07-07T12:42:03.751Z,22.20
2018-07-07T12:44:34.733Z,22.70
2018-07-07T12:47:08.463Z,22.43
2018-07-07T12:49:41.782Z,22.10
2018-07-07T12:52:13.823Z,22.33
2018-07-07T12:54:45.562Z,22.43
2018-07-07T12:57:17.560Z,24.70
2018-07-07T12:59:49.514Z,21.07
2018-07-07T13:02:21.510Z,22.07
2018-07-07T13:04:53.255Z,22.20
2018-07-07T13:07:25.119Z,23.23
2018-07-07T13:09:56.950Z,22.77
2018-07-07T13:12:28.103Z,21.63
2018-07-07T13:14:59.180Z,21.80
2018-07-07T13:17:31.211Z,21.27
2018-07-07T13:20:02.891Z,21.97
2018-07-07T13:22:34.883Z,22.30
2018-07-07T13:25:05.655Z,23.27
2018-07-07T13:27:37.442Z,23.40
2018-07-07T13:30:09.470Z,22.83
2018-07-07T13:32:41.696Z,21.90
2018-07-07T13:35:13.372Z,23.50
2018-07-07T13:37:45.425Z,22.00
2018-07-07T13:40:17.202Z,22.67
2018-07-07T13:42:49.015Z,22.67
2018-07-07T13:45:20.929Z,20.27
2018-07-07T13:47:53.082Z,23.87
2018-07-07T13:50:26.043Z,22.80
2018-07-07T13:52:58.127Z,19.77
2018-07-07T13:55:30.108Z,22.50
2018-07-07T13:58:02.098Z,23.33
2018-07-07T14:00:34.086Z,24.80
2018-07-07T14:03:05.864Z,22.37
2018-07-07T14:05:37.477Z,24.17
2018-07-07T14:08:09.675Z,22.67
2018-07-07T14:10:41.454Z,23.67
2018-07-07T14:13:13.588Z,22.23
2018-07-07T14:15:45.355Z,24.07
2018-07-07T14:18:17.085Z,22.37
2018-07-07T14:20:48.869Z,25.73
2018-07-07T14:23:21.002Z,23.00
2018-07-07T14:25:52.880Z,24.37
2018-07-07T14:28:24.982Z,21.87
2018-07-07T14:30:55.946Z,24.50
2018-07-07T14:33:27.827Z,22.97
2018-07-07T14:35:59.844Z,24.20
2018-07-07T14:38:36.331Z,22.33
2018-07-07T14:41:14.317Z,23.70
2018-07-07T14:43:57.086Z,23.53
2018-07-07T14:46:29.793Z,23.23
2018-07-07T14:49:02.094Z,24.20
2018-07-07T14:51:35.031Z,21.27
2018-07-07T14:54:07.142Z,23.90
2018-07-07T14:56:38.962Z,22.30
2018-07-07T14:59:11.186Z,21.93
2018-07-07T15:01:42.862Z,20.90
2018-07-07T15:04:14.886Z,26.70
2018-07-07T15:06:46.651Z,24.30
2018-07-07T15:09:18.984Z,24.67
2018-07-07T15:11:55.271Z,24.57
2018-07-07T15:14:26.208Z,25.50
2018-07-07T15:16:57.914Z,25.23
2018-07-07T15:19:29.950Z,23.13
2018-07-07T15:22:01.970Z,23.27
2018-07-07T15:24:34.351Z,23.30
2018-07-07T15:27:06.219Z,22.13
2018-07-07T15:29:38.156Z,24.20
2018-07-07T15:32:09.958Z,21.57
2018-07-07T15:34:41.736Z,21.47
2018-07-07T15:37:13.596Z,25.70
2018-07-07T15:39:44.654Z,23.87
2018-07-07T15:42:16.502Z,25.20
2018-07-07T15:44:48.506Z,22.80
2018-07-07T15:47:20.232Z,24.03
2018-07-07T15:49:51.976Z,23.60
2018-07-07T15:52:25.585Z,23.83
2018-07-07T15:54:57.786Z,22.87
2018-07-07T15:57:29.746Z,23.17
2018-07-07T16:00:01.745Z,24.70
2018-07-07T16:02:33.694Z,23.47
2018-07-07T16:05:05.743Z,21.23
2018-07-07T16:07:37.739Z,24.20
2018-07-07T16:10:10.481Z,23.63
2018-07-07T16:12:42.819Z,23.70
2018-07-07T16:15:15.068Z,23.20
2018-07-07T16:17:47.146Z,25.10
2018-07-07T16:20:19.212Z,24.93
2018-07-07T16:22:50.898Z,24.60
2018-07-07T16:25:23.087Z,25.63
2018-07-07T16:27:54.887Z,23.00
2018-07-07T16:30:28.217Z,22.80
2018-07-07T16:32:59.932Z,24.20
2018-07-07T16:35:31.975Z,23.03
2018-07-07T16:38:03.721Z,23.20
2018-07-07T16:40:36.472Z,22.03
2018-07-07T16:43:08.702Z,24.73
2018-07-07T16:45:40.772Z,22.63
2018-07-07T16:48:13.107Z,24.00
2018-07-07T16:50:45.672Z,21.37
2018-07-07T16:53:18.582Z,24.10
2018-07-07T16:55:51.401Z,22.93
2018-07-07T16:58:23.414Z,22.97
2018-07-07T17:00:56.222Z,23.67
2018-07-07T17:03:28.788Z,24.67
2018-07-07T17:06:01.468Z,23.10
2018-07-07T17:08:34.626Z,23.63
2018-07-07T17:11:05.922Z,22.87
2018-07-07T17:13:38.228Z,24.20
2018-07-07T17:16:10.516Z,23.70
2018-07-07T17:18:42.848Z,23.50
2018-07-07T17:21:15.891Z,23.27
2018-07-07T17:23:47.421Z,21.13
2018-07-07T17:26:19.597Z,21.63
2018-07-07T17:28:50.311Z,21.83
2018-07-07T17:31:21.394Z,24.90
2018-07-07T17:33:55.370Z,22.90
2018-07-07T17:36:29.014Z,22.83
2018-07-07T17:39:03.950Z,24.90
2018-07-07T17:41:37.227Z,23.10
2018-07-07T17:44:09.679Z,23.97
2018-07-07T17:46:42.426Z,23.33
2018-07-07T17:49:14.818Z,22.93
2018-07-07T17:51:47.130Z,23.90
2018-07-07T17:54:21.734Z,23.37
2018-07-07T17:56:57.487Z,25.00
2018-07-07T17:59:30.835Z,23.80
2018-07-07T18:02:02.952Z,22.07
2018-07-07T18:04:36.059Z,23.40
2018-07-07T18:07:09.091Z,24.00
2018-07-07T18:09:39.955Z,23.83
2018-07-07T18:12:12.478Z,24.33
2018-07-07T18:14:44.255Z,24.17
2018-07-07T18:17:16.039Z,23.17
2018-07-07T18:19:48.143Z,22.80
2018-07-07T18:22:21.071Z,23.20
2018-07-07T18:24:54.890Z,20.73
2018-07-07T18:27:27.070Z,23.23
2018-07-07T18:29:59.086Z,23.07
2018-07-07T18:32:31.604Z,23.27
2018-07-07T18:35:03.692Z,24.17
2018-07-07T18:37:35.823Z,23.27
2018-07-07T18:40:08.241Z,22.90
2018-07-07T18:42:40.208Z,24.37
2018-07-07T18:45:12.305Z,22.27
2018-07-07T18:47:45.724Z,22.83
2018-07-07T18:50:20.749Z,24.37
2018-07-07T18:52:54.427Z,23.70
2018-07-07T18:55:32.276Z,23.57
2018-07-07T18:58:04.540Z,21.30
2018-07-07T19:00:36.624Z,21.77
2018-07-07T19:03:08.814Z,24.27
2018-07-07T19:05:40.798Z,22.70
2018-07-07T19:08:12.566Z,24.53
2018-07-07T19:10:44.329Z,21.43
2018-07-07T19:13:16.698Z,24.00
2018-07-07T19:15:48.405Z,23.80
2018-07-07T19:18:20.458Z,24.30
2018-07-07T19:20:56.750Z,24.10
2018-07-07T19:26:11.608Z,20.60
2018-07-07T19:28:43.443Z,23.70
2018-07-07T19:31:15.642Z,25.93
2018-07-07T19:33:52.096Z,22.63
2018-07-07T19:36:28.639Z,22.10
2018-07-07T19:39:00.514Z,20.33
2018-07-07T19:41:32.661Z,22.37
2018-07-07T19:44:04.667Z,23.37
2018-07-07T19:46:36.806Z,22.90
2018-07-07T19:49:08.642Z,22.77
2018-07-07T19:51:40.764Z,21.43
2018-07-07T19:54:12.616Z,21.47
2018-07-07T19:56:45.362Z,23.10
2018-07-07T19:59:17.222Z,22.97
2018-07-07T20:01:49.272Z,24.20
2018-07-07T20:04:21.192Z,20.13
2018-07-07T20:06:53.110Z,22.00
2018-07-07T20:09:24.819Z,23.80
2018-07-07T20:11:56.757Z,22.70
2018-07-07T20:14:28.603Z,21.60
2018-07-07T20:17:02.011Z,23.23
2018-07-07T20:19:50.586Z,22.47
2018-07-07T20:22:21.708Z,23.90
2018-07-07T20:24:53.541Z,22.67
2018-07-07T20:27:31.370Z,24.83
2018-07-07T20:30:02.323Z,26.17
2018-07-07T20:32:39.426Z,24.37
2018-07-07T20:35:11.254Z,23.47
2018-07-07T20:37:43.319Z,24.00
2018-07-07T20:40:15.316Z,26.37
2018-07-07T20:42:48.031Z,22.67
2018-07-07T20:45:20.067Z,25.50
2018-07-07T20:47:52.046Z,25.40
2018-07-07T20:50:23.871Z,27.20
2018-07-07T20:52:56.366Z,25.10
2018-07-07T20:55:27.147Z,23.60
2018-07-07T20:57:59.209Z,23.60
2018-07-07T21:00:30.846Z,27.03
2018-07-07T21:03:02.169Z,24.93
2018-07-07T21:05:33.417Z,25.50
2018-07-07T21:08:05.653Z,24.80
2018-07-07T21:10:37.567Z,25.13
2018-07-07T21:13:09.470Z,23.57
2018-07-07T21:15:41.504Z,24.60
2018-07-07T21:18:13.682Z,24.63
2018-07-07T21:20:45.611Z,22.20
2018-07-07T21:23:17.419Z,25.43
2018-07-07T21:25:49.140Z,24.47
2018-07-07T21:28:22.538Z,24.40
2018-07-07T21:30:54.509Z,23.87
2018-07-07T21:33:26.582Z,25.60
2018-07-07T21:35:58.813Z,24.83
2018-07-07T21:38:30.774Z,25.47
2018-07-07T21:41:02.595Z,23.33
2018-07-07T21:43:34.695Z,23.53
2018-07-07T21:46:06.628Z,22.43
2018-07-07T21:48:38.687Z,22.90
2018-07-07T21:51:10.403Z,23.33
2018-07-07T21:53:42.691Z,24.50
2018-07-07T21:56:14.570Z,22.50
2018-07-07T21:58:46.827Z,23.20
2018-07-07T22:01:39.569Z,23.77
2018-07-07T22:04:16.935Z,23.10
2018-07-07T22:06:54.284Z,25.17
2018-07-07T22:09:26.514Z,24.03
2018-07-07T22:11:58.654Z,21.87
2018-07-07T22:14:31.212Z,23.97
2018-07-07T22:17:03.062Z,22.03
2018-07-07T22:19:34.877Z,24.30
2018-07-07T22:22:08.936Z,23.63
2018-07-07T22:24:42.260Z,23.10
2018-07-07T22:27:15.371Z,23.17
2018-07-07T22:29:48.690Z,22.37
2018-07-07T22:32:21.824Z,22.17
2018-07-07T22:34:54.807Z,25.63
2018-07-07T22:37:26.495Z,24.03
2018-07-07T22:39:58.603Z,25.30
2018-07-07T22:42:30.478Z,23.57
2018-07-07T22:45:03.072Z,22.43
2018-07-07T22:47:35.402Z,24.60
2018-07-07T22:50:07.492Z,24.03
2018-07-07T22:52:39.304Z,22.07
2018-07-07T22:55:11.397Z,23.53
2018-07-07T22:57:43.073Z,22.73
2018-07-07T23:00:15.199Z,21.70
2018-07-07T23:02:46.750Z,23.60
2018-07-07T23:05:18.791Z,24.77
2018-07-07T23:07:50.720Z,24.27
2018-07-07T23:10:22.952Z,24.03
2018-07-07T23:12:54.857Z,21.13
2018-07-07T23:15:26.760Z,23.17
2018-07-07T23:17:58.557Z,23.80
2018-07-07T23:20:30.774Z,23.63
2018-07-07T23:23:02.524Z,25.97
2018-07-07T23:25:34.543Z,22.63
2018-07-07T23:28:06.330Z,22.77
2018-07-07T23:30:39.640Z,22.90
2018-07-07T23:33:11.840Z,24.10
2018-07-07T23:35:43.938Z,22.87
2018-07-07T23:38:15.881Z,24.00
2018-07-07T23:40:47.762Z,23.00
2018-07-07T23:43:19.422Z,21.80
2018-07-07T23:45:52.021Z,23.20
2018-07-07T23:48:23.823Z,23.30
2018-07-07T23:50:56.452Z,23.27
2018-07-07T23:53:28.379Z,23.30
2018-07-07T23:56:00.655Z,24.30
2018-07-07T23:58:31.568Z,23.00
